Elizabeth Prince — WDJ6817 — position and weather

sailwx.info

Track history (hours):
 
Tides and Currents Weather Stations Pressure Air Temp Water Temp Dewpoint Dewpoint Depression Visibility Wind Speed Wind Dir Waves Ship Positions

Elizabeth Prince

Owner: Genesis Marine,LLC, Houston, TX. More information available from US FCC via Universal Licensing System and Coast Guard Vessel Documentation Center.

Last reported at 2017-Nov-11 10:34 UTC. Time now 2017-Nov-21 02:55 UTC.
Position N 29°30' W 094°52'.
Warning: this ship's position is 9 days out of date.

Length 27 m; draft 2.6 m.

Type: Towing. MMSI: 368000510.

Date/timePositionNaut miles runAvg speedWind from/ knotsBaromVisibWave heightAir tempDewpointWater temp
2017-Nov-11 10:34N 29°30' W 094°52'1 7.7
2017-Nov-11 10:27N 29°30' W 094°53'4 7.4
2017-Nov-11 09:59N 29°33' W 094°55'3 6.9
2017-Nov-11 09:30N 29°36' W 094°57'3 6.8
2017-Nov-11 09:00N 29°39' W 094°58'3 6.5
2017-Nov-11 08:31N 29°42' W 095°00'3 5.3
2017-Nov-11 07:58N 29°44' W 095°03'0 0.9
2017-Nov-11 07:28N 29°44' W 095°03'0 0.0
2017-Nov-11 07:00N 29°44' W 095°03'0 0.0
2017-Nov-11 06:23N 29°44' W 095°03'0 0.0
2017-Nov-11 06:00N 29°44' W 095°03'0 0.0
2017-Nov-11 05:23N 29°44' W 095°03'0 0.0
2017-Nov-11 02:44N 29°44' W 095°03'0 0.0
2017-Nov-11 02:22N 29°44' W 095°03'0 0.0
2017-Nov-11 01:32N 29°44' W 095°03'0 0.0
2017-Nov-11 01:10N 29°44' W 095°03'0 0.0
2017-Nov-11 00:42N 29°44' W 095°03'0 0.0
2017-Nov-11 00:30N 29°44' W 095°03'0 0.0
2017-Nov-11 00:00N 29°44' W 095°03'0 0.0
2017-Nov-10 23:30N 29°44' W 095°03'0 0.0
2017-Nov-10 23:00N 29°44' W 095°03'0 0.0
2017-Nov-10 22:30N 29°44' W 095°03'0 0.0
2017-Nov-10 21:59N 29°44' W 095°03'0 0.0
2017-Nov-10 21:30N 29°44' W 095°03'0 0.0
2017-Nov-10 21:00N 29°44' W 095°03'0 0.0
2017-Nov-10 20:30N 29°44' W 095°03'0 0.0
2017-Nov-10 20:00N 29°44' W 095°03'0 0.0
2017-Nov-10 19:30N 29°44' W 095°03'0 0.0
2017-Nov-10 18:20N 29°44' W 095°03'0 0.0
2017-Nov-10 17:58N 29°44' W 095°03'0 0.0
2017-Nov-10 17:29N 29°44' W 095°03'0 0.0
2017-Nov-10 16:59N 29°44' W 095°03'0 0.0
2017-Nov-10 16:30N 29°44' W 095°03'0 0.0
2017-Nov-10 16:00N 29°44' W 095°03'0 0.0
2017-Nov-10 15:29N 29°44' W 095°03'0 0.0
2017-Nov-10 15:00N 29°44' W 095°03'0 0.0
2017-Nov-10 14:30N 29°44' W 095°03'0 0.0
2017-Nov-10 14:00N 29°44' W 095°03'0 0.0
2017-Nov-10 13:30N 29°44' W 095°03'0 0.0
2017-Nov-10 13:00N 29°44' W 095°03'0 0.0
2017-Nov-10 12:30N 29°44' W 095°03'0 0.0
2017-Nov-10 12:00N 29°44' W 095°03'0 0.0
2017-Nov-10 11:30N 29°44' W 095°03'0 0.0
2017-Nov-10 11:00N 29°44' W 095°03'0 0.3
2017-Nov-10 10:26N 29°44' W 095°03'0 0.0
2017-Nov-10 09:53N 29°44' W 095°03'0 0.0
2017-Nov-10 09:08N 29°44' W 095°03'0 0.0
2017-Nov-10 09:00N 29°44' W 095°03'0 0.0
2017-Nov-10 08:30N 29°44' W 095°03'0 0.0
2017-Nov-10 07:57N 29°44' W 095°03'0 0.0
2017-Nov-10 07:29N 29°44' W 095°03'0 0.0
2017-Nov-10 06:58N 29°44' W 095°03'0 0.0
2017-Nov-10 04:50N 29°44' W 095°03'0 0.0
2017-Nov-10 04:22N 29°44' W 095°03'0 0.0
2017-Nov-10 03:54N 29°44' W 095°03'0 0.0
2017-Nov-10 03:29N 29°44' W 095°03'0 0.0
2017-Nov-10 02:55N 29°44' W 095°03'0 0.0
2017-Nov-10 02:28N 29°44' W 095°03'0 0.0
2017-Nov-10 02:00N 29°44' W 095°03'0 0.1
2017-Nov-10 01:30N 29°44' W 095°03'1 2.8
2017-Nov-10 01:00N 29°44' W 095°01'2 3.6
2017-Nov-10 00:30N 29°42' W 095°00'2 3.9
2017-Nov-10 00:00N 29°41' W 094°59'2 4.4
2017-Nov-09 23:30N 29°38' W 094°58'2 4.6
2017-Nov-09 23:00N 29°36' W 094°57'2 4.7
2017-Nov-09 22:30N 29°34' W 094°56'2 4.4
2017-Nov-09 22:00N 29°33' W 094°54'2 4.3
2017-Nov-09 21:30N 29°31' W 094°53'  
2017-Nov-04 20:21N 29°27' W 094°51'2 4.9
2017-Nov-04 19:50N 29°29' W 094°52'2 5.0
2017-Nov-04 19:30N 29°30' W 094°53'3 5.2
2017-Nov-04 18:59N 29°33' W 094°54'2 5.1
2017-Nov-04 18:30N 29°35' W 094°56'3 5.2
2017-Nov-04 18:00N 29°37' W 094°57'3 5.5
2017-Nov-04 17:30N 29°40' W 094°58'3 5.9
2017-Nov-04 17:00N 29°42' W 095°00'2 3.8
2017-Nov-04 16:27N 29°44' W 095°01'0 0.2
2017-Nov-04 15:59N 29°44' W 095°01'0 0.0
2017-Nov-04 15:30N 29°44' W 095°01'0 0.0
2017-Nov-04 14:57N 29°44' W 095°01'0 0.0
2017-Nov-04 14:30N 29°44' W 095°01'0 0.0
2017-Nov-04 14:00N 29°44' W 095°01'0 0.0
2017-Nov-04 13:30N 29°44' W 095°01'0 0.0
2017-Nov-04 13:00N 29°44' W 095°01'0 0.0
2017-Nov-04 12:30N 29°44' W 095°01'0 0.0
2017-Nov-04 12:00N 29°44' W 095°01'0 0.0
2017-Nov-04 11:29N 29°44' W 095°01'0 0.1
2017-Nov-04 10:50N 29°44' W 095°01'0 0.0
2017-Nov-04 10:30N 29°44' W 095°01'0 0.0
2017-Nov-04 09:55N 29°44' W 095°01'0 0.0
2017-Nov-04 09:27N 29°44' W 095°01'0 0.0
2017-Nov-04 09:00N 29°44' W 095°01'0 0.0
2017-Nov-04 08:30N 29°44' W 095°01'0 0.0
2017-Nov-04 07:58N 29°44' W 095°01'0 0.0
2017-Nov-04 07:27N 29°44' W 095°01'0 0.0
2017-Nov-04 02:13N 29°44' W 095°01'0 0.0
2017-Nov-04 00:58N 29°44' W 095°01'0 0.0
2017-Nov-03 17:22N 29°44' W 095°01'0 0.1
2017-Nov-03 17:00N 29°44' W 095°01'0 0.0
2017-Nov-03 16:28N 29°44' W 095°01'0 0.0
2017-Nov-03 15:56N 29°44' W 095°01'0 0.0
2017-Nov-03 15:29N 29°44' W 095°01'0 0.5
2017-Nov-03 15:00N 29°44' W 095°01'0 0.0
2017-Nov-03 14:29N 29°44' W 095°01'0 0.0
2017-Nov-03 14:00N 29°44' W 095°01'0 0.0
2017-Nov-03 13:29N 29°44' W 095°01'0 0.0
2017-Nov-03 12:58N 29°44' W 095°01'0 0.0
2017-Nov-03 12:27N 29°44' W 095°01'0 0.0
2017-Nov-03 11:53N 29°44' W 095°01'0 0.0
2017-Nov-03 11:30N 29°44' W 095°01'0 0.0
2017-Nov-03 11:00N 29°44' W 095°01'0 0.0
2017-Nov-03 10:27N 29°44' W 095°01'0 0.0
2017-Nov-03 09:50N 29°44' W 095°01'0 0.0
2017-Nov-03 09:29N 29°44' W 095°01'1 2.6
2017-Nov-03 09:00N 29°44' W 095°03'2 4.5
2017-Nov-03 08:30N 29°46' W 095°04'1 0.9
2017-Nov-03 07:05N 29°47' W 095°04'0 5.9
2017-Nov-03 07:01N 29°47' W 095°05'2 4.2
2017-Nov-03 06:31N 29°46' W 095°07'0 0.0
2017-Nov-02 18:54N 29°46' W 095°07'1 0.8
2017-Nov-02 17:46N 29°46' W 095°06'1 3.2
2017-Nov-02 17:30N 29°46' W 095°05'2 0.2
2017-Nov-02 08:38N 29°46' W 095°07'1 3.8
2017-Nov-02 08:30N 29°46' W 095°07'1 2.1
2017-Nov-02 08:00N 29°46' W 095°05'2 2.8
2017-Nov-02 07:26N 29°46' W 095°07'0 0.2
2017-Nov-02 06:59N 29°46' W 095°07'0 0.2
2017-Nov-02 06:29N 29°46' W 095°07'0 0.1
2017-Nov-02 05:58N 29°46' W 095°07'1 1.3
2017-Nov-02 05:23N 29°46' W 095°06'1 3.7
2017-Nov-02 04:59N 29°46' W 095°05'1 2.9
2017-Nov-02 04:29N 29°47' W 095°04'0 0.4
2017-Nov-02 03:54N 29°47' W 095°04'0 0.4
2017-Nov-02 02:54N 29°47' W 095°04'2 3.9
2017-Nov-02 02:30N 29°46' W 095°06'1 1.2
2017-Nov-02 02:00N 29°46' W 095°06'0 0.0
2017-Nov-02 01:30N 29°46' W 095°06'0 0.0
2017-Nov-02 01:00N 29°46' W 095°06'0 0.0
2017-Nov-02 00:30N 29°46' W 095°06'0 0.0
2017-Nov-02 00:00N 29°46' W 095°06'0 0.0
2017-Nov-01 23:30N 29°46' W 095°06'0 0.0
2017-Nov-01 23:00N 29°46' W 095°06'0 0.0
2017-Nov-01 22:30N 29°46' W 095°06'0 0.0
2017-Nov-01 22:00N 29°46' W 095°06'0 0.0
2017-Nov-01 21:30N 29°46' W 095°06'0 0.0
2017-Nov-01 20:58N 29°46' W 095°06'0 0.0
2017-Nov-01 20:30N 29°46' W 095°06'0 0.0
2017-Nov-01 20:00N 29°46' W 095°06'0 0.0
2017-Nov-01 19:30N 29°46' W 095°06'0 0.0
2017-Nov-01 19:00N 29°46' W 095°06'0 0.0
2017-Nov-01 18:07N 29°46' W 095°06'  
Track history (hours):
 
Tides and Currents Weather Stations Pressure Air Temp Water Temp Dewpoint Dewpoint Depression Visibility Wind Speed Wind Dir Waves Ship Positions

Elizabeth Prince

Owner: Genesis Marine,LLC, Houston, TX. More information available from US FCC via Universal Licensing System and Coast Guard Vessel Documentation Center.

Last reported at 2017-Nov-11 10:34 UTC. Time now 2017-Nov-21 02:55 UTC.
Position N 29°30' W 094°52'.
Warning: this ship's position is 9 days out of date.

Length 27 m; draft 2.6 m.

Type: Towing. MMSI: 368000510.

Date/timePositionNaut miles runAvg speedWind from/ knotsBaromVisibWave heightAir tempDewpointWater temp
2017-Nov-11 10:34N 29°30' W 094°52'1 7.7
2017-Nov-11 10:27N 29°30' W 094°53'4 7.4
2017-Nov-11 09:59N 29°33' W 094°55'3 6.9
2017-Nov-11 09:30N 29°36' W 094°57'3 6.8
2017-Nov-11 09:00N 29°39' W 094°58'3 6.5
2017-Nov-11 08:31N 29°42' W 095°00'3 5.3
2017-Nov-11 07:58N 29°44' W 095°03'0 0.9
2017-Nov-11 07:28N 29°44' W 095°03'0 0.0
2017-Nov-11 07:00N 29°44' W 095°03'0 0.0
2017-Nov-11 06:23N 29°44' W 095°03'0 0.0
2017-Nov-11 06:00N 29°44' W 095°03'0 0.0
2017-Nov-11 05:23N 29°44' W 095°03'0 0.0
2017-Nov-11 02:44N 29°44' W 095°03'0 0.0
2017-Nov-11 02:22N 29°44' W 095°03'0 0.0
2017-Nov-11 01:32N 29°44' W 095°03'0 0.0
2017-Nov-11 01:10N 29°44' W 095°03'0 0.0
2017-Nov-11 00:42N 29°44' W 095°03'0 0.0
2017-Nov-11 00:30N 29°44' W 095°03'0 0.0
2017-Nov-11 00:00N 29°44' W 095°03'0 0.0
2017-Nov-10 23:30N 29°44' W 095°03'0 0.0
2017-Nov-10 23:00N 29°44' W 095°03'0 0.0
2017-Nov-10 22:30N 29°44' W 095°03'0 0.0
2017-Nov-10 21:59N 29°44' W 095°03'0 0.0
2017-Nov-10 21:30N 29°44' W 095°03'0 0.0
2017-Nov-10 21:00N 29°44' W 095°03'0 0.0
2017-Nov-10 20:30N 29°44' W 095°03'0 0.0
2017-Nov-10 20:00N 29°44' W 095°03'0 0.0
2017-Nov-10 19:30N 29°44' W 095°03'0 0.0
2017-Nov-10 18:20N 29°44' W 095°03'0 0.0
2017-Nov-10 17:58N 29°44' W 095°03'0 0.0
2017-Nov-10 17:29N 29°44' W 095°03'0 0.0
2017-Nov-10 16:59N 29°44' W 095°03'0 0.0
2017-Nov-10 16:30N 29°44' W 095°03'0 0.0
2017-Nov-10 16:00N 29°44' W 095°03'0 0.0
2017-Nov-10 15:29N 29°44' W 095°03'0 0.0
2017-Nov-10 15:00N 29°44' W 095°03'0 0.0
2017-Nov-10 14:30N 29°44' W 095°03'0 0.0
2017-Nov-10 14:00N 29°44' W 095°03'0 0.0
2017-Nov-10 13:30N 29°44' W 095°03'0 0.0
2017-Nov-10 13:00N 29°44' W 095°03'0 0.0
2017-Nov-10 12:30N 29°44' W 095°03'0 0.0
2017-Nov-10 12:00N 29°44' W 095°03'0 0.0
2017-Nov-10 11:30N 29°44' W 095°03'0 0.0
2017-Nov-10 11:00N 29°44' W 095°03'0 0.3
2017-Nov-10 10:26N 29°44' W 095°03'0 0.0
2017-Nov-10 09:53N 29°44' W 095°03'0 0.0
2017-Nov-10 09:08N 29°44' W 095°03'0 0.0
2017-Nov-10 09:00N 29°44' W 095°03'0 0.0
2017-Nov-10 08:30N 29°44' W 095°03'0 0.0
2017-Nov-10 07:57N 29°44' W 095°03'0 0.0
2017-Nov-10 07:29N 29°44' W 095°03'0 0.0
2017-Nov-10 06:58N 29°44' W 095°03'0 0.0
2017-Nov-10 04:50N 29°44' W 095°03'0 0.0
2017-Nov-10 04:22N 29°44' W 095°03'0 0.0
2017-Nov-10 03:54N 29°44' W 095°03'0 0.0
2017-Nov-10 03:29N 29°44' W 095°03'0 0.0
2017-Nov-10 02:55N 29°44' W 095°03'0 0.0
2017-Nov-10 02:28N 29°44' W 095°03'0 0.0
2017-Nov-10 02:00N 29°44' W 095°03'0 0.1
2017-Nov-10 01:30N 29°44' W 095°03'1 2.8
2017-Nov-10 01:00N 29°44' W 095°01'2 3.6
2017-Nov-10 00:30N 29°42' W 095°00'2 3.9
2017-Nov-10 00:00N 29°41' W 094°59'2 4.4
2017-Nov-09 23:30N 29°38' W 094°58'2 4.6
2017-Nov-09 23:00N 29°36' W 094°57'2 4.7
2017-Nov-09 22:30N 29°34' W 094°56'2 4.4
2017-Nov-09 22:00N 29°33' W 094°54'2 4.3
2017-Nov-09 21:30N 29°31' W 094°53'  
2017-Nov-04 20:21N 29°27' W 094°51'2 4.9
2017-Nov-04 19:50N 29°29' W 094°52'2 5.0
2017-Nov-04 19:30N 29°30' W 094°53'3 5.2
2017-Nov-04 18:59N 29°33' W 094°54'2 5.1
2017-Nov-04 18:30N 29°35' W 094°56'3 5.2
2017-Nov-04 18:00N 29°37' W 094°57'3 5.5
2017-Nov-04 17:30N 29°40' W 094°58'3 5.9
2017-Nov-04 17:00N 29°42' W 095°00'2 3.8
2017-Nov-04 16:27N 29°44' W 095°01'0 0.2
2017-Nov-04 15:59N 29°44' W 095°01'0 0.0
2017-Nov-04 15:30N 29°44' W 095°01'0 0.0
2017-Nov-04 14:57N 29°44' W 095°01'0 0.0
2017-Nov-04 14:30N 29°44' W 095°01'0 0.0
2017-Nov-04 14:00N 29°44' W 095°01'0 0.0
2017-Nov-04 13:30N 29°44' W 095°01'0 0.0
2017-Nov-04 13:00N 29°44' W 095°01'0 0.0
2017-Nov-04 12:30N 29°44' W 095°01'0 0.0
2017-Nov-04 12:00N 29°44' W 095°01'0 0.0
2017-Nov-04 11:29N 29°44' W 095°01'0 0.1
2017-Nov-04 10:50N 29°44' W 095°01'0 0.0
2017-Nov-04 10:30N 29°44' W 095°01'0 0.0
2017-Nov-04 09:55N 29°44' W 095°01'0 0.0
2017-Nov-04 09:27N 29°44' W 095°01'0 0.0
2017-Nov-04 09:00N 29°44' W 095°01'0 0.0
2017-Nov-04 08:30N 29°44' W 095°01'0 0.0
2017-Nov-04 07:58N 29°44' W 095°01'0 0.0
2017-Nov-04 07:27N 29°44' W 095°01'0 0.0
2017-Nov-04 02:13N 29°44' W 095°01'0 0.0
2017-Nov-04 00:58N 29°44' W 095°01'0 0.0
2017-Nov-03 17:22N 29°44' W 095°01'0 0.1
2017-Nov-03 17:00N 29°44' W 095°01'0 0.0
2017-Nov-03 16:28N 29°44' W 095°01'0 0.0
2017-Nov-03 15:56N 29°44' W 095°01'0 0.0
2017-Nov-03 15:29N 29°44' W 095°01'0 0.5
2017-Nov-03 15:00N 29°44' W 095°01'0 0.0
2017-Nov-03 14:29N 29°44' W 095°01'0 0.0
2017-Nov-03 14:00N 29°44' W 095°01'0 0.0
2017-Nov-03 13:29N 29°44' W 095°01'0 0.0
2017-Nov-03 12:58N 29°44' W 095°01'0 0.0
2017-Nov-03 12:27N 29°44' W 095°01'0 0.0
2017-Nov-03 11:53N 29°44' W 095°01'0 0.0
2017-Nov-03 11:30N 29°44' W 095°01'0 0.0
2017-Nov-03 11:00N 29°44' W 095°01'0 0.0
2017-Nov-03 10:27N 29°44' W 095°01'0 0.0
2017-Nov-03 09:50N 29°44' W 095°01'0 0.0
2017-Nov-03 09:29N 29°44' W 095°01'1 2.6
2017-Nov-03 09:00N 29°44' W 095°03'2 4.5
2017-Nov-03 08:30N 29°46' W 095°04'1 0.9
2017-Nov-03 07:05N 29°47' W 095°04'0 5.9
2017-Nov-03 07:01N 29°47' W 095°05'2 4.2
2017-Nov-03 06:31N 29°46' W 095°07'0 0.0
2017-Nov-02 18:54N 29°46' W 095°07'1 0.8
2017-Nov-02 17:46N 29°46' W 095°06'1 3.2
2017-Nov-02 17:30N 29°46' W 095°05'2 0.2
2017-Nov-02 08:38N 29°46' W 095°07'1 3.8
2017-Nov-02 08:30N 29°46' W 095°07'1 2.1
2017-Nov-02 08:00N 29°46' W 095°05'2 2.8
2017-Nov-02 07:26N 29°46' W 095°07'0 0.2
2017-Nov-02 06:59N 29°46' W 095°07'0 0.2
2017-Nov-02 06:29N 29°46' W 095°07'0 0.1
2017-Nov-02 05:58N 29°46' W 095°07'1 1.3
2017-Nov-02 05:23N 29°46' W 095°06'1 3.7
2017-Nov-02 04:59N 29°46' W 095°05'1 2.9
2017-Nov-02 04:29N 29°47' W 095°04'0 0.4
2017-Nov-02 03:54N 29°47' W 095°04'0 0.4
2017-Nov-02 02:54N 29°47' W 095°04'2 3.9
2017-Nov-02 02:30N 29°46' W 095°06'1 1.2
2017-Nov-02 02:00N 29°46' W 095°06'0 0.0
2017-Nov-02 01:30N 29°46' W 095°06'0 0.0
2017-Nov-02 01:00N 29°46' W 095°06'0 0.0
2017-Nov-02 00:30N 29°46' W 095°06'0 0.0
2017-Nov-02 00:00N 29°46' W 095°06'0 0.0
2017-Nov-01 23:30N 29°46' W 095°06'0 0.0
2017-Nov-01 23:00N 29°46' W 095°06'0 0.0
2017-Nov-01 22:30N 29°46' W 095°06'0 0.0
2017-Nov-01 22:00N 29°46' W 095°06'0 0.0
2017-Nov-01 21:30N 29°46' W 095°06'0 0.0
2017-Nov-01 20:58N 29°46' W 095°06'0 0.0
2017-Nov-01 20:30N 29°46' W 095°06'0 0.0
2017-Nov-01 20:00N 29°46' W 095°06'0 0.0
2017-Nov-01 19:30N 29°46' W 095°06'0 0.0
2017-Nov-01 19:00N 29°46' W 095°06'0 0.0
2017-Nov-01 18:07N 29°46' W 095°06'  

Dump ship's entire track history